createdAt,value
2018-06-17T00:01:01.608Z,13.10
2018-06-17T00:06:32.012Z,10.95
2018-06-17T00:12:01.530Z,10.90
2018-06-17T00:17:31.238Z,11.70
2018-06-17T00:23:01.819Z,11.20
2018-06-17T00:28:31.764Z,11.03
2018-06-17T00:34:01.748Z,9.70
2018-06-17T00:39:31.435Z,9.55
2018-06-17T00:45:02.542Z,8.38
2018-06-17T00:50:32.939Z,8.80
2018-06-17T00:56:03.117Z,9.43
2018-06-17T01:01:33.115Z,8.60
2018-06-17T01:07:02.917Z,9.43
2018-06-17T01:12:32.561Z,9.53
2018-06-17T01:18:02.860Z,9.53
2018-06-17T01:23:32.817Z,9.00
2018-06-17T01:29:02.652Z,8.58
2018-06-17T01:34:32.743Z,8.85
2018-06-17T01:40:02.852Z,8.48
2018-06-17T01:45:32.859Z,8.20
2018-06-17T01:51:02.612Z,7.97
2018-06-17T01:56:33.099Z,8.00
2018-06-17T02:02:02.561Z,8.28
2018-06-17T02:08:39.455Z,9.23
2018-06-17T02:14:14.249Z,7.95
2018-06-17T02:19:43.448Z,7.67
2018-06-17T02:25:12.639Z,8.80
2018-06-17T02:30:41.833Z,8.48
2018-06-17T02:36:11.570Z,7.62
2018-06-17T02:41:40.828Z,9.38
2018-06-17T02:47:15.888Z,7.28
2018-06-17T02:52:50.584Z,7.53
2018-06-17T02:58:19.741Z,7.67
2018-06-17T03:03:48.940Z,7.70
2018-06-17T03:09:18.120Z,8.33
2018-06-17T03:14:47.302Z,7.62
2018-06-17T03:20:16.505Z,8.68
2018-06-17T03:25:51.107Z,8.35
2018-06-17T03:31:20.917Z,7.17
2018-06-17T03:36:49.846Z,7.03
2018-06-17T03:42:19.024Z,8.40
2018-06-17T03:47:48.288Z,7.40
2018-06-17T03:53:17.506Z,7.20
2018-06-17T03:58:46.692Z,7.80
2018-06-17T04:04:15.886Z,7.05
2018-06-17T04:09:45.109Z,6.42
2018-06-17T04:15:14.453Z,6.67
2018-06-17T04:20:43.735Z,7.60
2018-06-17T04:26:13.179Z,7.10
2018-06-17T04:31:42.373Z,7.45
2018-06-17T04:37:11.702Z,6.30
2018-06-17T04:42:40.892Z,6.22
2018-06-17T04:48:10.330Z,6.10
2018-06-17T04:53:39.690Z,6.22
2018-06-17T04:59:09.136Z,6.17
2018-06-17T05:04:38.962Z,6.33
2018-06-17T05:10:08.655Z,5.67
2018-06-17T05:15:39.015Z,6.50
2018-06-17T05:21:08.184Z,6.17
2018-06-17T05:26:38.411Z,5.90
2018-06-17T05:32:08.052Z,6.40
2018-06-17T05:37:37.668Z,5.72
2018-06-17T05:43:08.031Z,6.03
2018-06-17T05:48:38.732Z,6.17
2018-06-17T05:54:08.889Z,5.75
2018-06-17T05:59:41.443Z,5.92
2018-06-17T06:05:10.641Z,5.70
2018-06-17T06:10:40.083Z,5.25
2018-06-17T06:16:09.355Z,5.60
2018-06-17T06:21:38.532Z,5.92
2018-06-17T06:27:09.387Z,5.72
2018-06-17T06:32:41.955Z,5.17
2018-06-17T06:38:13.526Z,5.10
2018-06-17T06:43:43.628Z,4.62
2018-06-17T06:49:13.183Z,5.10
2018-06-17T06:54:43.834Z,4.90
2018-06-17T07:00:13.910Z,4.85
2018-06-17T07:06:00.070Z,4.95
2018-06-17T07:11:29.250Z,4.90
2018-06-17T07:17:16.145Z,5.50
2018-06-17T07:22:45.903Z,4.80
2018-06-17T07:30:23.255Z,5.50
2018-06-17T07:35:52.627Z,6.00
2018-06-17T07:41:22.153Z,5.08
2018-06-17T07:46:51.840Z,6.10
2018-06-17T07:52:38.776Z,6.97
2018-06-17T07:58:12.497Z,7.00
2018-06-17T08:03:42.792Z,6.47
2018-06-17T08:09:14.755Z,5.92
2018-06-17T08:14:44.241Z,7.28
2018-06-17T08:20:14.213Z,7.83
2018-06-17T08:25:44.418Z,7.00
2018-06-17T08:31:14.729Z,7.50
2018-06-17T08:36:44.145Z,7.53
2018-06-17T08:42:14.395Z,6.50
2018-06-17T08:47:45.298Z,6.58
2018-06-17T08:53:14.901Z,6.97
2018-06-17T08:58:44.933Z,6.80
2018-06-17T09:04:14.934Z,7.28
2018-06-17T09:09:44.341Z,7.45
2018-06-17T09:15:14.797Z,7.37
2018-06-17T09:20:44.016Z,9.23
2018-06-17T09:26:13.226Z,8.68
2018-06-17T09:31:43.633Z,9.53
2018-06-17T09:37:14.879Z,8.23
2018-06-17T09:42:45.124Z,10.20
2018-06-17T09:48:14.574Z,10.72
2018-06-17T09:53:45.263Z,9.10
2018-06-17T09:59:15.760Z,9.85
2018-06-17T10:04:45.335Z,9.78
2018-06-17T10:11:06.168Z,8.93
2018-06-17T10:16:35.352Z,9.63
2018-06-17T10:22:04.731Z,9.30
2018-06-17T10:27:33.957Z,9.80
2018-06-17T10:33:03.200Z,12.00
2018-06-17T10:38:32.423Z,10.65
2018-06-17T10:44:01.675Z,9.45
2018-06-17T10:49:30.881Z,9.08
2018-06-17T10:55:00.146Z,8.15
2018-06-17T11:00:29.359Z,8.15
2018-06-17T11:05:58.579Z,8.63
2018-06-17T11:11:27.809Z,7.97
2018-06-17T11:16:56.995Z,7.80
2018-06-17T11:22:26.151Z,8.55
2018-06-17T11:27:55.346Z,7.97
2018-06-17T11:33:24.613Z,9.45
2018-06-17T11:38:54.478Z,7.62
2018-06-17T11:44:23.640Z,7.55
2018-06-17T11:49:53.013Z,7.62
2018-06-17T11:55:22.971Z,7.40
2018-06-17T12:00:52.335Z,6.75
2018-06-17T12:06:21.588Z,9.60
2018-06-17T12:11:50.797Z,6.70
2018-06-17T12:17:19.953Z,7.78
2018-06-17T12:22:49.153Z,8.18
2018-06-17T12:28:18.486Z,7.37
2018-06-17T12:33:48.204Z,7.28
2018-06-17T12:39:17.705Z,6.95
2018-06-17T12:44:47.535Z,6.85
2018-06-17T12:50:18.387Z,5.72
2018-06-17T12:55:48.068Z,5.33
2018-06-17T13:01:17.632Z,6.45
2018-06-17T13:06:47.336Z,6.12
2018-06-17T13:12:18.271Z,6.62
2018-06-17T13:17:48.946Z,5.37
2018-06-17T13:23:18.842Z,5.42
2018-06-17T13:28:49.041Z,5.75
2018-06-17T13:34:19.199Z,6.20
2018-06-17T13:39:50.153Z,5.92
2018-06-17T13:45:20.747Z,6.03
2018-06-17T13:50:50.810Z,5.37
2018-06-17T13:56:20.787Z,6.97
2018-06-17T14:01:50.443Z,6.45
2018-06-17T14:07:20.099Z,5.62
2018-06-17T14:12:49.296Z,5.62
2018-06-17T14:18:18.639Z,4.58
2018-06-17T14:23:48.296Z,4.70
2018-06-17T14:29:17.795Z,4.95
2018-06-17T14:34:47.754Z,4.65
2018-06-17T14:40:17.837Z,4.65
2018-06-17T14:45:52.656Z,3.85
2018-06-17T14:51:27.473Z,4.78
2018-06-17T14:56:56.666Z,4.92
2018-06-17T15:02:25.905Z,4.35
2018-06-17T15:07:55.361Z,3.92
2018-06-17T15:13:24.649Z,3.80
2018-06-17T15:18:54.256Z,4.15
2018-06-17T15:24:23.672Z,4.05
2018-06-17T15:29:53.859Z,3.90
2018-06-17T15:35:28.244Z,4.70
2018-06-17T15:41:02.799Z,4.55
2018-06-17T15:46:32.215Z,4.30
2018-06-17T15:52:01.411Z,5.10
2018-06-17T15:57:30.649Z,4.60
2018-06-17T16:02:59.623Z,5.42
2018-06-17T16:08:28.824Z,4.90
2018-06-17T16:15:01.972Z,6.60
2018-06-17T16:20:36.586Z,3.87
2018-06-17T16:26:05.848Z,4.12
2018-06-17T16:31:35.120Z,4.40
2018-06-17T16:37:04.337Z,4.35
2018-06-17T16:42:33.545Z,3.87
2018-06-17T16:48:03.059Z,3.98
2018-06-17T16:53:37.725Z,3.98
2018-06-17T16:59:12.855Z,4.47
2018-06-17T17:04:44.704Z,4.17
2018-06-17T17:10:15.692Z,4.05
2018-06-17T17:15:46.957Z,4.08
2018-06-17T17:21:17.048Z,3.77
2018-06-17T17:26:46.567Z,3.62
2018-06-17T17:32:21.588Z,3.77
2018-06-17T17:37:56.488Z,4.05
2018-06-17T17:43:25.665Z,4.65
2018-06-17T17:48:55.025Z,4.60
2018-06-17T17:54:24.259Z,4.80
2018-06-17T17:59:53.432Z,5.65
2018-06-17T18:05:22.734Z,5.53
2018-06-17T18:10:52.422Z,5.95
2018-06-17T18:16:21.935Z,5.45
2018-06-17T18:21:51.224Z,5.65
2018-06-17T18:27:25.805Z,6.10
2018-06-17T18:34:00.050Z,5.45
2018-06-17T18:39:29.281Z,6.17
2018-06-17T18:44:58.545Z,4.83
2018-06-17T18:50:27.760Z,5.55
2018-06-17T18:55:56.967Z,6.28
2018-06-17T19:01:26.315Z,6.87
2018-06-17T19:06:55.616Z,6.97
2018-06-17T19:12:30.243Z,7.92
2018-06-17T19:18:12.409Z,7.55
2018-06-17T19:23:44.041Z,6.78
2018-06-17T19:29:13.992Z,7.08
2018-06-17T19:34:45.609Z,7.90
2018-06-17T19:40:17.849Z,7.83
2018-06-17T19:45:47.569Z,8.35
2018-06-17T19:51:22.277Z,7.87
2018-06-17T19:56:57.342Z,10.13
2018-06-17T20:02:26.801Z,7.53
2018-06-17T20:07:56.015Z,7.87
2018-06-17T20:13:25.750Z,8.10
2018-06-17T20:18:55.467Z,8.85
2018-06-17T20:24:25.101Z,7.70
2018-06-17T20:29:54.433Z,7.95
2018-06-17T20:35:29.578Z,8.48
2018-06-17T20:41:05.442Z,8.18
2018-06-17T20:46:34.737Z,8.63
2018-06-17T20:52:04.055Z,9.05
2018-06-17T20:57:33.316Z,9.13
2018-06-17T21:03:02.562Z,9.05
2018-06-17T21:08:31.903Z,8.88
2018-06-17T21:14:01.143Z,8.15
2018-06-17T21:19:35.707Z,8.23
2018-06-17T21:25:10.411Z,8.70
2018-06-17T21:30:41.161Z,7.97
2018-06-17T21:36:11.610Z,8.13
2018-06-17T21:41:43.291Z,7.80
2018-06-17T21:47:14.247Z,7.90
2018-06-17T21:52:44.453Z,9.15
2018-06-17T21:58:19.250Z,10.15
2018-06-17T22:03:49.017Z,8.85
2018-06-17T22:09:23.852Z,8.98
2018-06-17T22:14:58.512Z,8.63
2018-06-17T22:20:27.872Z,8.50
2018-06-17T22:25:57.345Z,7.37
2018-06-17T22:31:26.755Z,7.60
2018-06-17T22:36:56.302Z,8.03
2018-06-17T22:42:26.017Z,7.08
2018-06-17T22:47:59.405Z,7.42
2018-06-17T22:55:43.076Z,7.17
2018-06-17T23:01:21.182Z,7.65
2018-06-17T23:06:55.864Z,6.55
2018-06-17T23:12:25.417Z,6.17
2018-06-17T23:17:54.948Z,6.30
2018-06-17T23:23:24.373Z,7.70
2018-06-17T23:28:53.984Z,7.03
2018-06-17T23:34:23.591Z,7.03
2018-06-17T23:39:53.172Z,6.62
2018-06-17T23:45:22.811Z,6.58
2018-06-17T23:50:57.471Z,6.20
2018-06-17T23:56:32.961Z,6.42
